Flight Track Log - Related Links

Times and Time Zones

All times are in EST time to prevent confusion due to time zone crossing. See the CES5647 flight status page for this flight to view local times or setup timezone preferences in your user account.

Time Position Orientation Groundspeed Altitude Reporting Facility
EST Latitude Longitude Course Direction KTS MPH feet Rate Location/Type
Wed 08:01:00 AM 30.1155 120.2702 221° Southwest  Level Estimated
Wed 08:02:00 AM 30.0612 120.2175 220° Southwest  Level Estimated
Wed 08:03:00 AM 30.0068 120.1649 220° Southwest  Level Estimated
Wed 08:04:00 AM 29.9524 120.1123 220° Southwest  Level Estimated
Wed 08:05:00 AM 29.8980 120.0598 220° Southwest  Level Estimated
Wed 08:06:00 AM 29.8436 120.0073 220° Southwest  Level Estimated
Wed 08:07:00 AM 29.7891 119.9549 220° Southwest  Level Estimated
Wed 08:08:00 AM 29.7346 119.9026 220° Southwest  Level Estimated
Wed 08:09:00 AM 29.6801 119.8503 220° Southwest  Level Estimated
Wed 08:10:00 AM 29.6256 119.7981 220° Southwest  Level Estimated
Wed 08:11:00 AM 29.5711 119.7459 220° Southwest  Level Estimated
Wed 08:12:00 AM 29.5166 119.6938 220° Southwest  Level Estimated
Wed 08:13:00 AM 29.4620 119.6417 220° Southwest  Level Estimated
Wed 08:14:00 AM 29.4074 119.5897 220° Southwest  Level Estimated
Wed 08:15:00 AM 29.3528 119.5378 220° Southwest  Level Estimated
Wed 08:16:00 AM 29.2982 119.4859 220° Southwest  Level Estimated
Wed 08:17:00 AM 29.2467 119.4371 220° Southwest  Level Estimated
Wed 08:18:00 AM 29.1953 119.3884 220° Southwest  Level Estimated
Wed 08:19:00 AM 29.1438 119.3397 220° Southwest  Level Estimated
Wed 08:20:00 AM 29.0923 119.2910 220° Southwest  Level Estimated
Wed 08:21:00 AM 29.0408 119.2424 220° Southwest  Level Estimated
Wed 08:22:00 AM 28.9893 119.1939 219° Southwest  Level Estimated
Wed 08:23:00 AM 28.9377 119.1454 219° Southwest  Level Estimated
Wed 08:24:00 AM 28.8862 119.0969 219° Southwest  Level Estimated
Wed 08:25:00 AM 28.8346 119.0485 219° Southwest  Level Estimated
Wed 08:26:00 AM 28.7830 119.0002 219° Southwest  Level Estimated
Wed 08:27:00 AM 28.7314 118.9519 219° Southwest  Level Estimated
Wed 08:28:00 AM 28.6798 118.9036 219° Southwest  Level Estimated
Wed 08:29:00 AM 28.6281 118.8554 219° Southwest  Level Estimated
Wed 08:30:00 AM 28.5765 118.8073 219° Southwest  Level Estimated
Wed 08:31:00 AM 28.5248 118.7591 219° Southwest  Level Estimated
Wed 08:32:00 AM 28.4731 118.7111 219° Southwest  Level Estimated
Wed 08:33:00 AM 28.4214 118.6631 219° Southwest  Level Estimated
Wed 08:34:00 AM 28.3696 118.6151 219° Southwest  Level Estimated
Wed 08:35:00 AM 28.3179 118.5672 219° Southwest  Level Estimated
Wed 08:36:00 AM 28.2661 118.5193 219° Southwest  Level Estimated
Wed 08:37:00 AM 28.2143 118.4715 219° Southwest  Level Estimated
Wed 08:38:00 AM 28.1625 118.4237 219° Southwest  Level Estimated
Wed 08:39:00 AM 28.0996 118.3657 219° Southwest  Level Estimated
Wed 08:40:00 AM 28.0367 118.3078 219° Southwest  Level Estimated
Wed 08:41:00 AM 27.9737 118.2500 219° Southwest  Level Estimated
Wed 08:42:00 AM 27.9107 118.1922 219° Southwest  Level Estimated
Wed 08:43:00 AM 27.8477 118.1345 219° Southwest  Level Estimated
Wed 08:44:00 AM 27.7847 118.0769 219° Southwest  Level Estimated
Wed 08:45:00 AM 27.7216 118.0193 219° Southwest  Level Estimated
Wed 08:46:00 AM 27.7019 118.0014 219° Southwest  Level Estimated
Wed 08:47:00 AM 27.7019 118.0014 348° North  Level Estimated
Wed 08:48:00 AM 27.7019 118.0014 348° North  Level Estimated
Wed 08:49:00 AM 27.7019 118.0014 348° North  Level Estimated
Wed 08:50:00 AM 27.7019 118.0014 348° North  Level Estimated
Wed 08:51:00 AM 27.7019 118.0014 348° North  Level Estimated
Wed 08:52:00 AM 27.7019 118.0014 348° North  Level Estimated
Wed 08:53:00 AM 27.7019 118.0014 348° North  Level Estimated

Login

Don't have an account? Register now (free) for customized features, flight alerts, and more!